Overview Statistics Trail Chart Weather Telemetry Raw packets
 

This is the latest recevied weather packets stored in our database for station/object WA6OOO. If no packets are shown the sender has not sent any weather packets the latest 10 day(s).

<< 95 96 97 98 99 100 101 >>
Time Temp. Humidity Pressure Rain* Wind** Luminosity Snow
1787964345 25° C 75% 1013.8 hPa 0 mm - 147 W/m² -
1787964045 25° C 75% 1013.7 hPa 0 mm - 164 W/m² -
1787963745 25° C 76% 1013.6 hPa 0 mm - 166 W/m² -
1787963440 24.44° C 77% 1013.8 hPa 0 mm - 134 W/m² -
1787963136 25° C 76% 1013.7 hPa 0 mm - 91 W/m² -
1787962834 26.67° C 72% 1013.6 hPa 0 mm - 123 W/m² -
1787962533 26.67° C 71% 1013.7 hPa 0 mm - 112 W/m² -
1787962232 27.78° C 70% 1013.7 hPa 0 mm - 86 W/m² -
1787961932 28.89° C 66% 1013.6 hPa 0 mm - 159 W/m² -
1787961627 28.33° C 64% 1013.7 hPa 0 mm - 190 W/m² -
1787961320 28.89° C 63% 1013.6 hPa 0 mm - 276 W/m² -
1787961015 28.89° C 62% 1013.6 hPa 0 mm - 310 W/m² -
1787960709 28.89° C 64% 1013.5 hPa 0 mm - 344 W/m² -
1787960409 28.33° C 65% 1013.6 hPa 0 mm - 370 W/m² -
1787960098 27.78° C 69% 1013.8 hPa 0 mm - 398 W/m² -
1787959792 27.78° C 68% 1013.7 hPa 0 mm - 223 W/m² -
1787959487 27.78° C 67% 1014 hPa 0 mm - 378 W/m² -
1787959183 27.78° C 68% 1013.9 hPa 0 mm - 341 W/m² -
1787958877 28.33° C 66% 1014.1 hPa 0 mm - 279 W/m² -
1787958572 28.33° C 65% 1014 hPa 0 mm - 335 W/m² -
1787958268 28.33° C 63% 1014.2 hPa 0 mm - 521 W/m² -
1787957967 28.89° C 61% 1014.2 hPa 0 mm - 519 W/m² -
1787957667 28.89° C 62% 1014.3 hPa 0 mm - 464 W/m² -
1787957362 28.89° C 61% 1014.5 hPa 0 mm - 495 W/m² -
1787957062 29.44° C 61% 1014.2 hPa 0 mm - 544 W/m² -

* Rain latest hour (hover to see other rain measurements)
** Current wind speed in m/s (hover to see current wind gust speed)